Time;durP1;ratioP1;P1;durP2;ratioP2;P2;SDS_P1;SDS_P2;PMS_P1;PMS_P2;Temp;Humidity;BMP_temperature;BMP_pressure;BME280_temperature;BME280_humidity;BME280_pressure;Samples;Min_cycle;Max_cycle;Signal;HPM_P1;HPM_P2
2023/04/13 00:01:26;;;;;;;2.13;0.77;;;9.10;99.90;;;;;;5063367;28;20286;-70
2023/04/13 00:03:52;;;;;;;1.57;0.70;;;9.20;99.90;;;;;;5063521;28;20262;-68
2023/04/13 00:06:18;;;;;;;0.90;0.60;;;9.20;99.90;;;;;;5063770;28;20436;-69
2023/04/13 00:08:45;;;;;;;1.83;0.87;;;9.00;99.90;;;;;;5061854;28;20578;-69
2023/04/13 00:11:11;;;;;;;0.90;0.70;;;9.00;99.90;;;;;;5062667;28;20816;-69
2023/04/13 00:13:46;;;;;;;1.30;0.80;;;9.00;99.90;;;;;;5064078;28;20998;-69
2023/04/13 00:16:13;;;;;;;1.30;0.63;;;9.00;99.90;;;;;;5063347;28;20404;-69
2023/04/13 00:18:39;;;;;;;0.80;0.60;;;8.90;99.90;;;;;;5063452;28;20835;-69
2023/04/13 00:21:05;;;;;;;1.57;0.80;;;8.80;99.90;;;;;;5063393;28;20417;-67
2023/04/13 00:23:33;;;;;;;1.10;0.70;;;8.80;99.90;;;;;;5063259;28;20185;-70
2023/04/13 00:26:00;;;;;;;1.83;0.70;;;8.70;99.90;;;;;;5063557;28;20516;-69
2023/04/13 00:28:26;;;;;;;1.20;0.70;;;8.80;99.90;;;;;;5063531;28;20559;-67
2023/04/13 00:30:51;;;;;;;0.77;0.60;;;8.80;99.90;;;;;;5063082;28;20470;-69
2023/04/13 00:33:17;;;;;;;0.70;0.50;;;8.80;99.90;;;;;;5063227;28;20590;-69
2023/04/13 00:35:43;;;;;;;1.43;0.60;;;8.90;99.90;;;;;;5063425;28;20186;-69
2023/04/13 00:38:10;;;;;;;0.87;0.73;;;9.00;99.90;;;;;;5062569;28;20203;-69
2023/04/13 00:40:36;;;;;;;0.83;0.60;;;9.10;99.90;;;;;;5061566;28;20566;-68
2023/04/13 00:43:04;;;;;;;1.33;0.63;;;9.00;99.90;;;;;;5063325;28;20428;-69
2023/04/13 00:45:32;;;;;;;1.20;0.80;;;9.00;99.90;;;;;;5062582;28;20438;-69
2023/04/13 00:47:58;;;;;;;1.30;0.77;;;9.00;99.90;;;;;;5061439;28;20434;-68
2023/04/13 00:50:24;;;;;;;0.80;0.60;;;8.90;99.90;;;;;;5061958;28;20436;-69
2023/04/13 00:52:50;;;;;;;1.40;0.83;;;8.90;99.90;;;;;;5063367;28;20461;-68
2023/04/13 00:55:20;;;;;;;0.70;0.50;;;8.80;99.90;;;;;;5063294;28;20413;-68
2023/04/13 00:57:48;;;;;;;1.13;0.70;;;8.70;99.90;;;;;;5063388;28;20434;-68
2023/04/13 01:00:16;;;;;;;1.53;1.03;;;8.80;99.90;;;;;;5061761;28;20800;-69
2023/04/13 01:02:41;;;;;;;1.10;0.80;;;8.80;99.90;;;;;;5063229;28;20444;-69
2023/04/13 01:05:11;;;;;;;0.90;0.77;;;8.90;99.90;;;;;;5064352;28;20422;-69
2023/04/13 01:07:55;;;;;;;0.80;0.60;;;8.80;99.90;;;;;;5066901;28;20176;-68
2023/04/13 01:10:44;;;;;;;1.30;0.67;;;8.80;99.90;;;;;;5067228;28;20951;-68
2023/04/13 01:13:37;;;;;;;1.27;0.70;;;8.80;99.90;;;;;;5066827;28;20480;-69
2023/04/13 01:16:22;;;;;;;1.73;0.73;;;8.70;99.90;;;;;;5048404;28;20419;-68
2023/04/13 01:18:51;;;;;;;1.30;0.87;;;8.70;99.90;;;;;;5066854;28;20536;-69
2023/04/13 01:21:23;;;;;;;1.37;0.90;;;8.70;99.90;;;;;;5067060;28;20532;-69
2023/04/13 01:23:57;;;;;;;1.10;0.70;;;8.70;99.90;;;;;;5066428;28;20448;-68
2023/04/13 01:26:24;;;;;;;1.00;0.53;;;8.70;99.90;;;;;;5066302;28;20409;-67
2023/04/13 01:28:51;;;;;;;1.00;0.70;;;8.70;99.90;;;;;;5064906;28;20958;-69
2023/04/13 01:31:18;;;;;;;1.53;0.80;;;8.60;99.90;;;;;;5065338;28;20420;-69
2023/04/13 01:33:45;;;;;;;1.57;0.87;;;8.60;99.90;;;;;;5065944;28;20406;-68
2023/04/13 01:36:12;;;;;;;3.30;0.87;;;8.50;99.90;;;;;;5048304;28;20413;-69
2023/04/13 01:38:38;;;;;;;1.00;0.80;;;8.30;99.90;;;;;;5065752;28;20459;-69
2023/04/13 01:41:04;;;;;;;0.70;0.60;;;8.30;99.90;;;;;;5065913;28;20420;-67
2023/04/13 01:43:29;;;;;;;1.40;0.70;;;8.30;99.90;;;;;;5066303;28;20182;-70
2023/04/13 01:46:08;;;;;;;0.80;0.60;;;8.20;99.90;;;;;;5047418;28;20303;-69
2023/04/13 01:48:41;;;;;;;1.17;0.80;;;8.10;99.90;;;;;;5047785;28;20291;-69
2023/04/13 01:51:15;;;;;;;0.80;0.60;;;8.10;99.90;;;;;;5047877;28;20440;-70
2023/04/13 01:53:49;;;;;;;1.63;0.90;;;8.00;99.90;;;;;;5047834;28;20408;-70
2023/04/13 01:56:18;;;;;;;1.67;0.70;;;7.80;99.90;;;;;;5065046;28;20462;-68
2023/04/13 01:58:48;;;;;;;0.83;0.80;;;7.80;99.90;;;;;;5064362;28;20498;-69
2023/04/13 02:01:14;;;;;;;1.73;0.77;;;7.70;99.90;;;;;;5047579;28;20531;-69
2023/04/13 02:03:42;;;;;;;0.90;0.70;;;7.70;99.90;;;;;;5048116;28;20417;-70
2023/04/13 02:06:08;;;;;;;1.47;0.70;;;7.60;99.90;;;;;;5064310;28;20416;-70
2023/04/13 02:08:35;;;;;;;1.63;0.70;;;7.60;99.90;;;;;;5063853;28;20870;-68
2023/04/13 02:11:02;;;;;;;0.80;0.60;;;7.60;99.90;;;;;;5031576;28;20470;-70
2023/04/13 02:13:31;;;;;;;0.90;0.60;;;7.50;99.90;;;;;;5047510;28;20420;-71
2023/04/13 02:15:57;;;;;;;1.73;0.80;;;7.60;99.90;;;;;;5046131;28;20420;-70
2023/04/13 02:18:23;;;;;;;3.30;0.70;;;7.50;99.90;;;;;;5064283;28;20932;-70
2023/04/13 02:21:00;;;;;;;1.50;0.90;;;7.50;99.90;;;;;;5064273;28;20420;-70
2023/04/13 02:23:26;;;;;;;1.03;0.67;;;7.50;99.90;;;;;;5063739;28;20181;-69
2023/04/13 02:25:51;;;;;;;3.17;0.80;;;7.60;99.90;;;;;;5047669;28;20446;-70
2023/04/13 02:28:17;;;;;;;1.50;0.83;;;7.60;99.90;;;;;;5065802;28;20190;-70
2023/04/13 02:30:43;;;;;;;1.13;0.90;;;7.60;99.90;;;;;;5064143;28;20269;-70
2023/04/13 02:33:09;;;;;;;0.90;0.70;;;7.60;99.90;;;;;;5047379;28;20947;-70
2023/04/13 02:35:37;;;;;;;1.50;1.20;;;7.70;99.90;;;;;;5064294;28;20431;-69
2023/04/13 02:38:06;;;;;;;1.20;0.87;;;7.70;99.90;;;;;;5047489;28;20178;-70
2023/04/13 02:40:32;;;;;;;0.80;0.80;;;7.70;99.90;;;;;;5047649;28;20855;-69
2023/04/13 02:42:58;;;;;;;2.60;0.80;;;7.80;99.90;;;;;;5063710;28;20441;-69
2023/04/13 02:45:25;;;;;;;2.77;0.90;;;7.80;99.90;;;;;;5063533;28;20187;-69
2023/04/13 02:47:51;;;;;;;2.93;1.10;;;7.80;99.90;;;;;;5063697;28;20931;-69
2023/04/13 02:50:17;;;;;;;2.50;1.00;;;7.70;99.90;;;;;;5063542;28;20416;-68
2023/04/13 02:52:42;;;;;;;2.80;1.00;;;7.60;99.90;;;;;;5063219;28;20226;-70
2023/04/13 02:55:08;;;;;;;1.97;0.80;;;7.70;99.90;;;;;;5046561;28;20185;-68
2023/04/13 02:57:34;;;;;;;1.30;1.07;;;7.70;99.90;;;;;;5046803;28;20178;-70
2023/04/13 03:00:00;;;;;;;2.50;1.07;;;7.80;99.90;;;;;;5046552;28;20937;-68
2023/04/13 03:02:28;;;;;;;2.40;0.80;;;7.80;99.90;;;;;;5063059;28;20694;-69
2023/04/13 03:04:55;;;;;;;1.20;0.70;;;7.80;99.90;;;;;;5063431;28;20197;-69
2023/04/13 03:07:21;;;;;;;1.60;0.80;;;7.90;99.90;;;;;;5062921;28;20653;-68
2023/04/13 03:09:47;;;;;;;2.00;0.80;;;7.80;99.90;;;;;;5046499;28;20529;-69
2023/04/13 03:12:12;;;;;;;0.70;0.60;;;7.70;99.90;;;;;;5062737;28;20470;-69
2023/04/13 03:14:38;;;;;;;2.20;0.97;;;7.60;99.90;;;;;;5046375;28;20182;-69
2023/04/13 03:17:04;;;;;;;1.20;0.80;;;7.60;99.90;;;;;;5045935;28;20590;-69
2023/04/13 03:19:31;;;;;;;1.70;0.70;;;7.60;99.90;;;;;;5062854;28;20205;-68
2023/04/13 03:21:57;;;;;;;0.93;0.83;;;7.50;99.90;;;;;;5062824;28;20202;-69
2023/04/13 03:24:26;;;;;;;1.73;0.97;;;7.60;99.90;;;;;;5046161;28;20429;-70
2023/04/13 03:26:58;;;;;;;1.20;0.97;;;7.60;99.90;;;;;;5062516;28;20187;-70
2023/04/13 03:29:24;;;;;;;1.03;0.80;;;7.50;99.90;;;;;;5062554;28;20460;-70
2023/04/13 03:31:50;;;;;;;3.63;0.93;;;7.50;99.90;;;;;;5045923;28;20432;-70
2023/04/13 03:34:16;;;;;;;4.17;1.00;;;7.50;99.90;;;;;;5062668;28;20179;-70
2023/04/13 03:36:42;;;;;;;1.10;0.90;;;7.50;99.90;;;;;;5045811;28;20198;-69
2023/04/13 03:39:07;;;;;;;1.63;0.80;;;7.50;99.90;;;;;;5045545;28;20453;-71
2023/04/13 03:41:33;;;;;;;1.10;0.90;;;7.50;99.90;;;;;;5045793;28;20213;-70
2023/04/13 03:43:59;;;;;;;1.80;1.00;;;7.50;99.90;;;;;;5043561;28;20304;-71
2023/04/13 03:46:26;;;;;;;1.20;0.70;;;7.50;99.90;;;;;;5045805;28;20662;-70
2023/04/13 03:48:51;;;;;;;2.17;1.40;;;7.50;99.90;;;;;;5062421;28;20203;-70
2023/04/13 03:51:17;;;;;;;1.77;1.47;;;7.60;99.90;;;;;;5045422;28;20479;-70
2023/04/13 03:53:43;;;;;;;1.37;1.20;;;7.50;99.90;;;;;;5045676;28;20311;-68
2023/04/13 03:56:08;;;;;;;2.30;1.50;;;7.50;99.90;;;;;;5045768;28;20339;-70
2023/04/13 03:58:34;;;;;;;1.90;1.00;;;7.50;99.90;;;;;;5045686;28;20189;-70
2023/04/13 04:01:00;;;;;;;2.20;1.10;;;7.50;99.90;;;;;;5045533;28;20742;-70
2023/04/13 04:03:26;;;;;;;1.30;0.97;;;7.60;99.90;;;;;;5045289;28;20715;-69
2023/04/13 04:05:51;;;;;;;2.23;1.20;;;7.70;99.90;;;;;;5063844;28;20266;-71
2023/04/13 04:08:17;;;;;;;1.37;0.87;;;7.70;99.90;;;;;;5061687;28;20259;-70
2023/04/13 04:10:43;;;;;;;2.13;0.90;;;7.90;99.90;;;;;;5062268;28;20201;-70
2023/04/13 04:13:08;;;;;;;2.40;1.00;;;8.00;99.90;;;;;;5045218;28;20237;-70
2023/04/13 04:15:34;;;;;;;2.30;1.10;;;8.10;99.90;;;;;;5062514;28;20180;-71
2023/04/13 04:18:00;;;;;;;1.77;1.10;;;8.00;99.90;;;;;;5062755;28;20242;-71
2023/04/13 04:20:25;;;;;;;1.13;0.83;;;8.00;99.90;;;;;;5046152;28;20423;-70
2023/04/13 04:22:52;;;;;;;1.63;0.80;;;8.10;99.90;;;;;;5045411;28;20203;-70
2023/04/13 04:25:21;;;;;;;2.17;1.00;;;8.00;99.90;;;;;;5046783;28;20682;-69
2023/04/13 04:27:56;;;;;;;3.67;1.07;;;8.10;99.90;;;;;;5045686;28;20488;-69
2023/04/13 04:30:23;;;;;;;1.67;0.80;;;8.10;99.90;;;;;;5061966;28;20435;-69
2023/04/13 04:32:51;;;;;;;1.20;0.93;;;8.00;99.90;;;;;;5063040;28;20463;-69
2023/04/13 04:35:24;;;;;;;2.07;1.00;;;8.10;99.90;;;;;;5045216;28;20417;-70
2023/04/13 04:37:54;;;;;;;2.40;1.30;;;8.30;99.90;;;;;;5061581;28;20809;-70
2023/04/13 04:40:20;;;;;;;3.30;1.20;;;8.30;99.90;;;;;;5063742;28;20421;-70
2023/04/13 04:42:45;;;;;;;1.67;1.00;;;8.10;99.90;;;;;;5049390;28;20434;-69
2023/04/13 04:45:13;;;;;;;6.10;1.70;;;8.20;99.90;;;;;;5066166;28;20851;-70
2023/04/13 04:47:42;;;;;;;2.17;1.10;;;8.20;99.90;;;;;;5065229;28;20237;-69
2023/04/13 04:50:13;;;;;;;2.10;1.30;;;8.20;99.90;;;;;;5065717;28;20855;-69
2023/04/13 04:52:39;;;;;;;3.23;1.30;;;8.20;99.90;;;;;;5048640;28;20475;-69
2023/04/13 04:55:06;;;;;;;3.73;1.40;;;8.00;99.90;;;;;;5067144;28;20422;-70
2023/04/13 04:57:33;;;;;;;2.90;1.30;;;8.10;99.90;;;;;;5065578;28;20921;-68
2023/04/13 04:59:59;;;;;;;6.10;1.30;;;8.10;99.90;;;;;;5065725;28;20785;-67
2023/04/13 05:02:25;;;;;;;2.20;1.17;;;8.10;99.90;;;;;;5065690;28;20984;-70
2023/04/13 05:04:52;;;;;;;4.00;1.73;;;8.30;99.90;;;;;;5065427;28;20444;-70
2023/04/13 05:07:17;;;;;;;3.10;1.10;;;8.30;99.90;;;;;;5048966;28;20805;-71
2023/04/13 05:09:44;;;;;;;3.13;0.90;;;8.40;99.90;;;;;;5064114;28;20459;-70
2023/04/13 05:12:10;;;;;;;2.90;0.97;;;8.40;99.90;;;;;;5065447;28;20213;-69
2023/04/13 05:14:36;;;;;;;3.57;1.73;;;8.40;99.90;;;;;;5065522;28;20418;-71
2023/04/13 05:17:01;;;;;;;4.67;1.20;;;8.30;99.90;;;;;;5066207;28;20852;-69
2023/04/13 05:19:27;;;;;;;2.73;1.20;;;8.50;99.90;;;;;;5065291;28;20188;-71
2023/04/13 05:21:53;;;;;;;3.17;1.47;;;8.60;99.90;;;;;;5056492;28;20208;-69
2023/04/13 05:24:18;;;;;;;2.70;1.33;;;8.60;99.90;;;;;;5048449;28;20188;-69
2023/04/13 05:26:44;;;;;;;3.50;1.10;;;8.70;99.90;;;;;;5064932;28;20573;-69
2023/04/13 05:29:10;;;;;;;2.60;1.90;;;8.70;99.90;;;;;;5065124;28;20796;-70
2023/04/13 05:31:35;;;;;;;3.43;1.47;;;8.70;99.90;;;;;;5047917;28;20227;-70
2023/04/13 05:34:01;;;;;;;4.73;1.37;;;8.70;99.90;;;;;;5065261;28;20192;-70
2023/04/13 05:36:31;;;;;;;2.80;1.30;;;8.70;99.90;;;;;;5065055;28;20191;-70
2023/04/13 05:39:00;;;;;;;3.10;1.90;;;8.60;99.90;;;;;;5048050;28;20181;-70
2023/04/13 05:41:26;;;;;;;6.50;1.30;;;8.70;99.90;;;;;;5052705;28;20440;-71
2023/04/13 05:43:51;;;;;;;4.63;1.33;;;8.60;99.90;;;;;;5064391;28;20484;-69
2023/04/13 05:46:17;;;;;;;4.30;1.40;;;8.60;99.90;;;;;;5064337;28;20283;-69
2023/04/13 05:48:43;;;;;;;1.80;1.50;;;8.70;99.90;;;;;;5048120;28;20331;-71
2023/04/13 05:51:11;;;;;;;6.60;1.93;;;8.80;99.90;;;;;;5047288;28;20193;-69
2023/04/13 05:53:37;;;;;;;2.60;1.53;;;8.60;99.90;;;;;;5047863;28;20204;-71
2023/04/13 05:56:03;;;;;;;2.13;1.20;;;8.50;99.90;;;;;;5046903;28;21292;-70
2023/04/13 05:58:28;;;;;;;8.57;2.53;;;8.60;99.90;;;;;;5064365;28;20659;-70
2023/04/13 06:00:54;;;;;;;4.63;1.53;;;8.50;99.90;;;;;;5064116;28;21034;-70
2023/04/13 06:03:20;;;;;;;4.30;1.73;;;8.40;99.90;;;;;;5064683;28;20185;-70
2023/04/13 06:05:45;;;;;;;4.07;1.20;;;8.70;99.90;;;;;;5064312;28;20282;-69
2023/04/13 06:08:12;;;;;;;4.23;1.63;;;8.70;99.90;;;;;;5064511;28;20188;-70
2023/04/13 06:10:38;;;;;;;4.43;2.07;;;8.70;99.90;;;;;;5047292;28;20214;-68
2023/04/13 06:13:04;;;;;;;4.53;1.40;;;8.80;99.90;;;;;;5047739;28;20475;-70
2023/04/13 06:15:30;;;;;;;2.60;1.67;;;8.80;99.90;;;;;;5047469;28;20928;-70
2023/04/13 06:17:56;;;;;;;4.80;1.33;;;8.80;99.90;;;;;;5064144;28;20426;-71
2023/04/13 06:20:22;;;;;;;2.40;1.30;;;8.80;99.90;;;;;;5047801;28;20831;-70
2023/04/13 06:22:48;;;;;;;3.03;1.20;;;9.00;99.90;;;;;;5047869;28;20223;-70
2023/04/13 06:25:14;;;;;;;3.23;1.20;;;9.00;99.90;;;;;;5064609;28;20177;-70
2023/04/13 06:27:42;;;;;;;2.63;1.23;;;8.90;99.90;;;;;;5064466;28;20430;-69
2023/04/13 06:30:09;;;;;;;4.33;1.50;;;9.00;99.90;;;;;;5047923;28;20202;-71
2023/04/13 06:32:35;;;;;;;2.10;1.00;;;8.90;99.90;;;;;;5064502;28;20528;-71
2023/04/13 06:35:02;;;;;;;3.00;1.40;;;8.90;99.90;;;;;;5063634;28;20454;-69
2023/04/13 06:37:27;;;;;;;3.83;1.20;;;9.00;99.90;;;;;;5064144;28;20449;-71
2023/04/13 06:39:53;;;;;;;2.50;1.27;;;8.90;99.90;;;;;;5063349;28;20451;-69
2023/04/13 06:42:19;;;;;;;4.33;1.73;;;8.70;99.90;;;;;;5063823;28;20204;-70
2023/04/13 06:44:45;;;;;;;3.70;1.53;;;8.80;99.90;;;;;;5063695;28;20231;-70
2023/04/13 06:47:10;;;;;;;4.00;1.43;;;9.10;99.90;;;;;;5046873;28;20933;-68
2023/04/13 06:49:36;;;;;;;3.93;1.60;;;9.00;99.90;;;;;;5064901;28;20208;-71
2023/04/13 06:52:01;;;;;;;3.67;1.47;;;9.20;99.90;;;;;;5046508;28;20217;-71
2023/04/13 06:54:27;;;;;;;3.10;1.40;;;9.20;99.90;;;;;;5063886;28;20181;-72
2023/04/13 06:56:53;;;;;;;1.90;1.43;;;9.30;99.90;;;;;;5062149;28;20185;-71
2023/04/13 06:59:18;;;;;;;2.50;1.30;;;9.60;99.90;;;;;;5063328;28;20271;-71
2023/04/13 07:01:44;;;;;;;5.40;1.53;;;9.80;99.90;;;;;;5062487;28;20535;-70
2023/04/13 07:04:10;;;;;;;2.53;1.47;;;10.00;99.90;;;;;;5059738;28;20442;-70
2023/04/13 07:06:35;;;;;;;3.40;1.40;;;10.20;99.90;;;;;;5046638;28;20695;-70
2023/04/13 07:09:01;;;;;;;3.20;1.50;;;10.40;99.90;;;;;;5064908;28;20759;-71
2023/04/13 07:11:27;;;;;;;3.07;1.30;;;10.60;99.90;;;;;;5064236;28;20199;-70
2023/04/13 07:13:52;;;;;;;3.53;1.80;;;10.60;99.90;;;;;;5063290;28;20579;-69
2023/04/13 07:16:18;;;;;;;2.60;1.40;;;10.40;99.90;;;;;;5062601;28;20291;-71
2023/04/13 07:18:43;;;;;;;3.33;1.60;;;10.30;99.90;;;;;;5063170;28;20650;-70
2023/04/13 07:21:09;;;;;;;5.70;1.50;;;10.50;99.90;;;;;;5045808;28;20209;-71
2023/04/13 07:23:34;;;;;;;4.47;1.53;;;10.60;99.90;;;;;;5062883;28;20182;-69
2023/04/13 07:26:00;;;;;;;4.37;1.20;;;10.40;99.90;;;;;;5062780;28;20746;-70
2023/04/13 07:28:26;;;;;;;2.87;1.70;;;10.20;99.90;;;;;;5062621;28;20702;-69
2023/04/13 07:30:52;;;;;;;2.63;1.47;;;10.30;99.90;;;;;;5045832;28;20176;-68
2023/04/13 07:33:18;;;;;;;4.83;1.83;;;10.30;99.90;;;;;;5062523;28;20218;-69
2023/04/13 07:35:44;;;;;;;4.30;1.50;;;10.30;99.90;;;;;;5062815;28;20197;-69
2023/04/13 07:38:10;;;;;;;3.83;2.00;;;10.30;99.90;;;;;;5045722;28;20178;-71
2023/04/13 07:40:35;;;;;;;3.20;1.50;;;10.20;99.90;;;;;;5045973;28;20493;-71
2023/04/13 07:43:01;;;;;;;2.33;1.20;;;10.10;99.90;;;;;;5046072;28;20282;-71
2023/04/13 07:45:30;;;;;;;4.57;1.57;;;10.30;99.90;;;;;;5046329;28;20208;-69
2023/04/13 07:47:56;;;;;;;4.00;1.47;;;10.40;99.90;;;;;;5045797;28;20180;-71
2023/04/13 07:50:22;;;;;;;5.50;1.50;;;10.50;99.90;;;;;;5062458;28;20514;-71
2023/04/13 07:52:47;;;;;;;8.40;1.50;;;10.40;99.90;;;;;;5062392;28;20593;-70
2023/04/13 07:55:13;;;;;;;4.40;1.67;;;10.60;99.90;;;;;;5045414;28;20187;-70
2023/04/13 07:57:39;;;;;;;7.67;2.10;;;10.50;99.90;;;;;;5062570;28;20188;-68
2023/04/13 08:00:05;;;;;;;8.13;2.07;;;10.70;99.90;;;;;;5062620;28;20673;-70
2023/04/13 08:02:32;;;;;;;3.97;1.50;;;10.90;99.90;;;;;;5061782;28;20584;-68
2023/04/13 08:04:58;;;;;;;5.40;1.60;;;10.60;99.90;;;;;;5062729;28;20418;-70
2023/04/13 08:07:24;;;;;;;3.03;1.20;;;10.80;99.90;;;;;;5045397;28;20797;-71
2023/04/13 08:09:51;;;;;;;5.00;1.40;;;10.80;99.90;;;;;;5045355;28;21285;-69
2023/04/13 08:12:17;;;;;;;3.50;1.30;;;10.60;99.90;;;;;;5061282;28;21089;-70
2023/04/13 08:14:43;;;;;;;4.67;1.87;;;10.40;99.90;;;;;;5045549;28;20947;-68
2023/04/13 08:17:10;;;;;;;3.77;1.57;;;10.60;99.90;;;;;;5045265;28;20410;-69
2023/04/13 08:19:35;;;;;;;2.53;1.40;;;10.90;99.90;;;;;;5045740;28;21010;-70
2023/04/13 08:22:01;;;;;;;4.20;1.37;;;10.90;99.90;;;;;;5061937;28;20463;-70
2023/04/13 08:24:28;;;;;;;1.60;1.20;;;10.90;99.90;;;;;;5062157;28;20292;-71
2023/04/13 08:26:53;;;;;;;9.60;2.07;;;11.20;99.90;;;;;;5062002;28;20189;-70
2023/04/13 08:29:20;;;;;;;6.23;1.70;;;11.40;99.90;;;;;;5045319;28;20459;-70
2023/04/13 08:31:46;;;;;;;4.63;1.53;;;11.50;99.90;;;;;;5062878;28;20940;-71
2023/04/13 08:34:13;;;;;;;4.33;1.50;;;11.40;99.90;;;;;;5038440;28;21004;-71
2023/04/13 08:36:39;;;;;;;4.53;1.60;;;11.60;99.90;;;;;;5061871;28;20425;-70
2023/04/13 08:39:05;;;;;;;7.93;2.23;;;11.20;99.90;;;;;;5045094;28;20427;-71
2023/04/13 08:41:32;;;;;;;4.90;1.60;;;11.50;99.90;;;;;;5061671;28;20486;-71
2023/04/13 08:44:04;;;;;;;7.23;1.90;;;11.70;99.90;;;;;;5061958;28;20449;-71
2023/04/13 08:46:30;;;;;;;3.07;1.60;;;12.00;99.90;;;;;;5061879;28;20452;-71
2023/04/13 08:48:58;;;;;;;4.30;1.50;;;11.80;99.90;;;;;;5045245;28;20985;-70
2023/04/13 08:51:27;;;;;;;6.17;2.27;;;11.60;99.90;;;;;;5061506;28;20485;-69
2023/04/13 08:53:54;;;;;;;3.00;1.40;;;11.50;99.90;;;;;;5045276;28;20420;-70
2023/04/13 08:56:21;;;;;;;7.00;2.43;;;11.50;99.90;;;;;;5061231;28;20440;-70
2023/04/13 08:58:50;;;;;;;4.17;1.80;;;11.20;99.90;;;;;;5061520;28;20796;-70
2023/04/13 09:01:16;;;;;;;2.97;1.80;;;11.20;99.90;;;;;;5044002;28;20435;-69
2023/04/13 09:03:52;;;;;;;4.67;2.10;;;11.30;99.90;;;;;;5044718;28;20425;-71
2023/04/13 09:06:25;;;;;;;3.50;1.73;;;11.10;99.90;;;;;;5061720;28;20419;-70
2023/04/13 09:08:54;;;;;;;3.77;1.73;;;11.10;99.90;;;;;;5045071;28;20440;-71
2023/04/13 09:11:20;;;;;;;3.70;1.50;;;11.00;99.90;;;;;;5044507;28;20466;-69
2023/04/13 09:13:53;;;;;;;4.00;1.40;;;11.10;99.90;;;;;;5061708;28;20942;-68
2023/04/13 09:16:18;;;;;;;4.40;1.73;;;11.40;99.90;;;;;;5061919;28;20412;-69
2023/04/13 09:19:03;;;;;;;7.63;1.93;;;11.60;99.90;;;;;;5061679;28;21054;-68
2023/04/13 09:21:41;;;;;;;4.13;2.37;;;11.50;99.90;;;;;;5044177;28;20206;-69
2023/04/13 09:24:07;;;;;;;4.70;1.40;;;11.90;99.90;;;;;;5061498;28;20960;-70
2023/04/13 09:26:43;;;;;;;4.93;2.00;;;12.00;99.90;;;;;;5063873;28;20935;-69
2023/04/13 09:29:12;;;;;;;4.60;1.47;;;12.40;99.90;;;;;;5048624;28;20457;-70
2023/04/13 09:31:38;;;;;;;4.77;1.63;;;12.00;99.90;;;;;;5065160;28;20836;-71
2023/04/13 09:34:07;;;;;;;4.77;1.90;;;12.20;99.90;;;;;;5048920;28;20411;-68
2023/04/13 09:36:32;;;;;;;3.30;1.70;;;12.60;99.90;;;;;;5049084;28;20423;-69
2023/04/13 09:38:58;;;;;;;3.63;1.97;;;13.10;99.90;;;;;;5066150;28;20427;-68
2023/04/13 09:41:37;;;;;;;5.30;1.80;;;13.60;99.90;;;;;;5048612;28;20445;-69
2023/04/13 09:44:19;;;;;;;5.50;1.57;;;13.80;99.90;;;;;;5065353;28;20200;-70
2023/04/13 09:47:06;;;;;;;4.30;1.63;;;13.30;99.90;;;;;;5048153;28;20909;-71
2023/04/13 09:49:42;;;;;;;3.53;1.13;;;13.20;99.90;;;;;;5064739;28;20452;-69
2023/04/13 09:52:18;;;;;;;5.87;1.83;;;13.10;99.90;;;;;;5047992;28;20551;-69
2023/04/13 09:54:51;;;;;;;2.90;1.40;;;13.20;99.90;;;;;;5064940;28;20415;-68
2023/04/13 09:57:27;;;;;;;5.00;1.80;;;13.30;99.90;;;;;;5065012;28;20459;-68
2023/04/13 09:59:54;;;;;;;5.80;1.60;;;12.80;99.90;;;;;;5048097;28;20424;-69
2023/04/13 10:02:21;;;;;;;4.87;1.57;;;12.50;99.90;;;;;;5048188;28;20449;-70
2023/04/13 10:04:46;;;;;;;4.90;2.00;;;12.00;99.90;;;;;;5049902;28;20447;-70
2023/04/13 10:07:12;;;;;;;2.70;1.33;;;12.00;99.90;;;;;;5048791;28;20416;-69
2023/04/13 10:09:40;;;;;;;4.40;1.27;;;11.70;99.90;;;;;;5049890;28;20210;-69
2023/04/13 10:12:09;;;;;;;3.43;1.40;;;11.50;99.90;;;;;;5066151;28;20197;-69
2023/04/13 10:14:42;;;;;;;5.00;1.50;;;11.70;99.90;;;;;;5065864;28;20417;-69
2023/04/13 10:17:23;;;;;;;7.03;1.83;;;11.90;99.90;;;;;;5064627;28;20422;-71
2023/04/13 10:19:51;;;;;;;3.30;1.40;;;12.10;99.90;;;;;;5048464;28;20412;-71
2023/04/13 10:22:19;;;;;;;5.30;2.60;;;12.20;99.90;;;;;;5064362;28;20444;-70
2023/04/13 10:24:45;;;;;;;4.20;2.10;;;12.00;99.90;;;;;;5047323;28;20425;-69
2023/04/13 10:27:13;;;;;;;3.10;1.50;;;12.10;99.90;;;;;;5047283;28;20424;-70
2023/04/13 10:29:39;;;;;;;3.87;1.93;;;12.10;99.90;;;;;;5064006;28;20205;-70
2023/04/13 10:32:06;;;;;;;3.37;1.73;;;12.20;99.90;;;;;;5063305;28;20538;-69
2023/04/13 10:34:35;;;;;;;5.50;2.10;;;12.50;99.90;;;;;;5064228;28;20211;-70
2023/04/13 10:37:06;;;;;;;7.37;2.20;;;12.30;99.50;;;;;;5046270;28;20428;-70
2023/04/13 10:39:36;;;;;;;4.97;1.60;;;12.10;99.90;;;;;;5047316;28;20518;-70
2023/04/13 10:42:06;;;;;;;5.37;2.13;;;12.20;99.80;;;;;;5046758;28;20925;-70
2023/04/13 10:44:52;;;;;;;4.87;1.77;;;12.30;99.70;;;;;;5063860;28;20419;-69
2023/04/13 10:47:19;;;;;;;4.60;1.70;;;12.10;99.90;;;;;;5046823;28;20802;-69
2023/04/13 10:49:46;;;;;;;3.60;1.53;;;11.90;99.90;;;;;;5062826;28;20459;-69
2023/04/13 10:52:13;;;;;;;5.33;1.70;;;12.10;99.60;;;;;;5063192;28;20502;-69
2023/04/13 10:54:40;;;;;;;7.30;1.83;;;12.20;99.90;;;;;;5064691;28;20505;-69
2023/04/13 10:57:07;;;;;;;6.70;2.07;;;12.30;99.70;;;;;;5063146;28;20458;-70
2023/04/13 10:59:47;;;;;;;4.47;1.60;;;12.50;99.90;;;;;;5063580;28;20808;-70
2023/04/13 11:02:15;;;;;;;4.37;1.60;;;12.70;99.90;;;;;;5063182;28;20475;-69
2023/04/13 11:04:43;;;;;;;5.37;2.40;;;12.80;99.80;;;;;;5063729;28;20794;-69
2023/04/13 11:07:24;;;;;;;5.30;1.90;;;12.90;99.80;;;;;;5063087;28;20417;-69
2023/04/13 11:09:58;;;;;;;4.63;1.67;;;12.90;99.70;;;;;;5061975;28;22539;-69
2023/04/13 11:12:24;;;;;;;5.47;2.17;;;12.80;99.90;;;;;;5062776;28;20446;-69
2023/04/13 11:14:50;;;;;;;5.60;2.00;;;12.90;99.90;;;;;;5062926;28;20413;-70
2023/04/13 11:17:17;;;;;;;3.00;1.60;;;12.80;99.30;;;;;;5045954;28;20557;-68
2023/04/13 11:19:51;;;;;;;2.90;1.67;;;12.90;99.90;;;;;;5062771;28;20594;-70
2023/04/13 11:22:18;;;;;;;5.23;2.57;;;12.30;99.00;;;;;;5062857;28;20449;-70
2023/04/13 11:24:46;;;;;;;5.87;2.00;;;12.20;99.50;;;;;;5045924;28;20998;-70
2023/04/13 11:27:22;;;;;;;6.03;1.90;;;12.60;99.90;;;;;;5046064;28;20777;-70
2023/04/13 11:30:05;;;;;;;5.67;2.07;;;12.70;99.90;;;;;;5046453;28;20521;-70
2023/04/13 11:32:32;;;;;;;3.13;1.90;;;12.90;99.20;;;;;;5045817;28;20822;-70
2023/04/13 11:35:09;;;;;;;6.73;2.27;;;12.50;99.40;;;;;;5029694;28;20975;-71
2023/04/13 11:37:48;;;;;;;5.60;2.00;;;12.10;99.90;;;;;;5062431;28;20505;-71
2023/04/13 11:40:20;;;;;;;6.77;1.93;;;11.00;99.90;;;;;;5062204;28;20472;-71
2023/04/13 11:42:54;;;;;;;5.27;1.90;;;10.20;99.90;;;;;;5046899;28;20448;-70
2023/04/13 11:45:22;;;;;;;5.63;2.60;;;9.70;99.90;;;;;;5062311;28;20515;-70
2023/04/13 11:47:51;;;;;;;3.80;1.33;;;9.70;99.90;;;;;;5062265;28;20423;-70
2023/04/13 11:50:19;;;;;;;4.33;1.80;;;9.80;99.90;;;;;;5062380;28;20545;-69
2023/04/13 11:52:45;;;;;;;5.80;1.90;;;10.00;99.90;;;;;;5062273;28;20452;-68
2023/04/13 11:55:13;;;;;;;5.53;1.83;;;10.20;99.90;;;;;;5061956;28;20441;-71
2023/04/13 11:57:40;;;;;;;4.73;1.90;;;10.90;99.90;;;;;;5045683;28;20412;-71
2023/04/13 12:00:22;;;;;;;2.97;1.10;;;11.70;99.90;;;;;;5045371;28;20842;-70
2023/04/13 12:02:50;;;;;;;2.90;1.60;;;12.60;99.90;;;;;;5061961;28;20446;-70
2023/04/13 12:05:21;;;;;;;3.90;1.57;;;14.20;99.90;;;;;;5045884;28;20438;-70
2023/04/13 12:07:47;;;;;;;2.83;1.70;;;15.50;99.90;;;;;;5045664;28;21015;-70
2023/04/13 12:10:36;;;;;;;3.43;1.77;;;15.90;99.90;;;;;;5061675;28;20455;-69
2023/04/13 12:13:08;;;;;;;4.30;1.50;;;16.40;99.90;;;;;;5061906;28;20816;-71
2023/04/13 12:15:36;;;;;;;5.13;2.10;;;17.00;99.90;;;;;;5045176;28;20428;-70
2023/04/13 12:18:03;;;;;;;2.87;1.43;;;17.40;99.90;;;;;;5045036;28;20417;-71
2023/04/13 12:20:37;;;;;;;3.23;1.20;;;17.50;99.90;;;;;;5061854;28;20481;-72
2023/04/13 12:23:03;;;;;;;4.03;2.13;;;17.30;99.90;;;;;;5044616;28;20443;-71
2023/04/13 12:25:31;;;;;;;7.43;2.00;;;16.80;99.90;;;;;;5045628;28;20424;-71
2023/04/13 12:27:57;;;;;;;4.67;1.77;;;16.30;99.90;;;;;;5045796;28;20556;-71
2023/04/13 12:30:24;;;;;;;3.83;2.50;;;16.30;99.90;;;;;;5045168;28;20484;-70
2023/04/13 12:32:52;;;;;;;3.27;1.70;;;15.90;99.90;;;;;;5061992;28;20343;-70
2023/04/13 12:35:18;;;;;;;3.20;2.23;;;15.20;99.90;;;;;;5045410;28;20419;-71
2023/04/13 12:37:45;;;;;;;4.87;2.40;;;16.60;99.90;;;;;;5063160;28;20506;-70
2023/04/13 12:40:14;;;;;;;6.53;4.07;;;18.70;99.90;;;;;;5045259;28;20223;-69
2023/04/13 12:42:46;;;;;;;5.63;4.17;;;19.40;96.80;;;;;;5045089;28;20752;-69
2023/04/13 12:45:14;;;;;;;4.40;3.30;;;20.20;93.20;;;;;;5061928;28;20503;-67
2023/04/13 12:47:40;;;;;;;7.43;4.03;;;21.20;90.20;;;;;;5045023;28;20506;-69
2023/04/13 12:50:07;;;;;;;7.33;4.63;;;20.90;91.20;;;;;;5044449;28;20825;-69
2023/04/13 12:52:34;;;;;;;5.40;4.03;;;19.40;94.60;;;;;;5060946;28;20568;-68
2023/04/13 12:55:01;;;;;;;6.60;4.30;;;18.30;96.10;;;;;;5061663;28;20436;-70
2023/04/13 12:57:29;;;;;;;4.43;3.40;;;16.70;97.40;;;;;;5061417;28;20434;-70